createdAt,value
2023-01-30T00:02:21.847Z,21.52
2023-01-30T00:04:55.303Z,24.85
2023-01-30T00:07:26.342Z,23.60
2023-01-30T00:09:57.186Z,25.17
2023-01-30T00:12:28.138Z,19.50
2023-01-30T00:14:59.101Z,20.58
2023-01-30T00:17:29.956Z,24.65
2023-01-30T00:20:03.478Z,25.60
2023-01-30T00:22:34.356Z,29.40
2023-01-30T00:25:05.378Z,29.80
2023-01-30T00:27:36.398Z,21.73
2023-01-30T00:30:07.942Z,21.42
2023-01-30T00:32:38.799Z,24.40
2023-01-30T00:35:12.899Z,20.92
2023-01-30T00:37:44.331Z,22.90
2023-01-30T00:40:16.559Z,24.98
2023-01-30T00:43:00.027Z,20.80
2023-01-30T00:45:43.119Z,22.63
2023-01-30T00:48:16.912Z,19.85
2023-01-30T00:50:50.342Z,18.80
2023-01-30T00:53:21.283Z,23.20
2023-01-30T00:55:54.858Z,17.70
2023-01-30T00:58:26.802Z,22.38
2023-01-30T01:00:58.434Z,20.83
2023-01-30T01:03:29.307Z,23.52
2023-01-30T01:06:02.729Z,19.63
2023-01-30T01:08:33.546Z,27.30
2023-01-30T01:11:04.791Z,19.50
2023-01-30T01:13:35.819Z,21.50
2023-01-30T01:16:06.850Z,19.10
2023-01-30T01:18:37.752Z,23.67
2023-01-30T01:21:13.706Z,22.90
2023-01-30T01:23:45.029Z,23.08
2023-01-30T01:26:15.983Z,20.83
2023-01-30T01:28:46.956Z,21.30
2023-01-30T01:31:19.796Z,20.40
2023-01-30T01:33:52.104Z,22.20
2023-01-30T01:36:51.733Z,21.17
2023-01-30T01:39:16.525Z,25.58
2023-01-30T01:41:44.766Z,24.75
2023-01-30T01:44:17.660Z,19.45
2023-01-30T01:46:52.306Z,24.52
2023-01-30T01:49:27.184Z,21.08
2023-01-30T01:52:04.850Z,21.50
2023-01-30T01:54:39.832Z,25.92
2023-01-30T01:57:14.381Z,17.33
2023-01-30T01:59:50.805Z,20.50
2023-01-30T02:02:23.449Z,22.25
2023-01-30T02:05:07.052Z,22.15
2023-01-30T02:07:45.478Z,21.77
2023-01-30T02:10:21.031Z,21.67
2023-01-30T02:12:53.709Z,18.55
2023-01-30T02:15:26.075Z,22.15
2023-01-30T02:17:58.645Z,19.50
2023-01-30T02:20:40.200Z,19.08
2023-01-30T02:23:32.054Z,21.33
2023-01-30T02:26:38.604Z,18.95
2023-01-30T02:29:37.900Z,21.08
2023-01-30T02:32:17.406Z,19.42
2023-01-30T02:34:55.361Z,21.13
2023-01-30T02:37:34.981Z,21.92
2023-01-30T02:40:21.379Z,18.55
2023-01-30T02:42:59.853Z,20.17
2023-01-30T02:45:37.312Z,20.23
2023-01-30T02:48:15.641Z,18.58
2023-01-30T02:50:50.912Z,18.45
2023-01-30T02:53:21.705Z,18.42
2023-01-30T02:55:52.809Z,20.63
2023-01-30T02:58:27.110Z,19.05
2023-01-30T03:01:18.709Z,21.85
2023-01-30T03:04:08.648Z,21.42
2023-01-30T03:06:57.036Z,20.42
2023-01-30T03:09:38.831Z,22.20
2023-01-30T03:12:19.674Z,21.35
2023-01-30T03:14:55.920Z,24.52
2023-01-30T03:17:29.865Z,19.80
2023-01-30T03:20:03.946Z,21.55
2023-01-30T03:22:34.792Z,21.83
2023-01-30T03:25:06.021Z,21.70
2023-01-30T03:27:38.453Z,24.73
2023-01-30T03:30:11.199Z,20.38
2023-01-30T03:32:42.108Z,28.58
2023-01-30T03:35:18.235Z,23.75
2023-01-30T03:37:50.309Z,25.02
2023-01-30T03:40:22.578Z,25.00
2023-01-30T03:42:54.205Z,24.63
2023-01-30T03:45:25.124Z,22.52
2023-01-30T03:47:56.808Z,22.00
2023-01-30T03:50:30.238Z,17.58
2023-01-30T03:53:01.124Z,20.75
2023-01-30T03:55:33.046Z,20.52
2023-01-30T03:58:04.223Z,25.52
2023-01-30T04:00:37.968Z,20.73
2023-01-30T04:03:08.926Z,22.67
2023-01-30T04:05:42.358Z,21.83
2023-01-30T04:08:15.465Z,22.60
2023-01-30T04:10:46.378Z,22.45
2023-01-30T04:13:17.738Z,25.42
2023-01-30T04:15:48.592Z,21.35
2023-01-30T04:18:38.929Z,22.90
2023-01-30T04:21:19.592Z,21.77
2023-01-30T04:23:50.643Z,20.50
2023-01-30T04:26:21.491Z,25.85
2023-01-30T04:28:52.426Z,25.92
2023-01-30T04:31:23.491Z,24.35
2023-01-30T04:34:20.697Z,21.98
2023-01-30T04:36:54.193Z,23.30
2023-01-30T04:39:25.097Z,21.73
2023-01-30T04:41:56.454Z,23.25
2023-01-30T04:44:27.591Z,26.50
2023-01-30T04:47:12.130Z,31.13
2023-01-30T04:49:43.165Z,29.45
2023-01-30T04:52:19.505Z,22.63
2023-01-30T04:54:50.423Z,24.92
2023-01-30T04:57:22.033Z,23.23
2023-01-30T04:59:54.177Z,20.42
2023-01-30T05:02:25.109Z,25.05
2023-01-30T05:04:55.871Z,23.45
2023-01-30T05:07:29.314Z,21.73
2023-01-30T05:10:00.191Z,20.40
2023-01-30T05:12:31.072Z,21.95
2023-01-30T05:15:01.982Z,20.35
2023-01-30T05:17:32.903Z,19.65
2023-01-30T05:20:03.736Z,22.17
2023-01-30T05:22:37.220Z,21.00
2023-01-30T05:25:09.437Z,20.67
2023-01-30T05:27:40.295Z,22.08
2023-01-30T05:30:12.836Z,19.08
2023-01-30T05:32:43.825Z,18.33
2023-01-30T05:35:14.877Z,23.55
2023-01-30T05:37:52.683Z,27.05
2023-01-30T05:40:23.610Z,21.15
2023-01-30T05:42:54.537Z,20.00
2023-01-30T05:45:25.444Z,21.50
2023-01-30T05:47:58.603Z,19.02
2023-01-30T05:50:32.081Z,23.20
2023-01-30T05:53:05.424Z,20.48
2023-01-30T05:55:36.306Z,20.27
2023-01-30T05:58:07.062Z,19.10
2023-01-30T06:00:37.931Z,20.85
2023-01-30T06:03:08.733Z,20.05
2023-01-30T06:05:41.470Z,21.48
2023-01-30T06:08:15.396Z,21.63
2023-01-30T06:10:46.255Z,16.58
2023-01-30T06:13:17.017Z,21.67
2023-01-30T06:15:47.929Z,15.52
2023-01-30T06:18:18.821Z,18.58
2023-01-30T06:20:51.619Z,18.50
2023-01-30T06:23:26.495Z,17.73
2023-01-30T06:25:57.802Z,17.90
2023-01-30T06:28:29.727Z,17.95
2023-01-30T06:31:00.668Z,16.10
2023-01-30T06:33:39.382Z,18.45
2023-01-30T06:36:11.109Z,17.52
2023-01-30T06:38:44.597Z,17.23
2023-01-30T06:41:15.476Z,17.55
2023-01-30T06:43:46.556Z,18.13
2023-01-30T06:46:17.613Z,18.38
2023-01-30T06:48:48.528Z,19.00
2023-01-30T06:51:20.130Z,17.33
2023-01-30T06:53:53.659Z,19.63
2023-01-30T06:56:24.620Z,22.63
2023-01-30T06:58:55.392Z,22.50
2023-01-30T07:01:28.794Z,27.27
2023-01-30T07:04:01.014Z,18.15
2023-01-30T07:06:31.899Z,19.05
2023-01-30T07:09:05.347Z,18.63
2023-01-30T07:11:36.184Z,19.85
2023-01-30T07:14:07.396Z,21.13
2023-01-30T07:16:38.392Z,25.42
2023-01-30T07:19:09.350Z,21.05
2023-01-30T07:21:40.217Z,24.02
2023-01-30T07:24:14.479Z,20.85
2023-01-30T07:26:45.345Z,21.17
2023-01-30T07:29:16.258Z,21.23
2023-01-30T07:31:47.057Z,22.02
2023-01-30T07:34:18.053Z,24.33
2023-01-30T07:36:48.792Z,26.15
2023-01-30T07:39:22.243Z,24.83
2023-01-30T07:41:53.899Z,21.77
2023-01-30T07:44:25.670Z,17.75
2023-01-30T07:46:56.470Z,23.92
2023-01-30T07:49:27.483Z,27.15
2023-01-30T07:51:58.337Z,21.00
2023-01-30T07:54:31.915Z,19.30
2023-01-30T07:57:02.830Z,21.92
2023-01-30T07:59:33.746Z,21.10
2023-01-30T08:02:04.648Z,19.50
2023-01-30T08:04:35.774Z,25.88
2023-01-30T08:07:06.962Z,21.10
2023-01-30T08:09:40.391Z,20.17
2023-01-30T08:12:11.311Z,17.65
2023-01-30T08:14:42.145Z,18.35
2023-01-30T08:17:12.973Z,18.40
2023-01-30T08:19:43.763Z,18.15
2023-01-30T08:22:15.516Z,19.50
2023-01-30T08:24:49.027Z,19.73
2023-01-30T08:27:20.090Z,22.15
2023-01-30T08:29:51.006Z,20.27
2023-01-30T08:32:21.837Z,23.30
2023-01-30T08:34:52.813Z,20.25
2023-01-30T08:37:23.693Z,24.00
2023-01-30T08:39:57.081Z,21.83
2023-01-30T08:42:28.344Z,17.23
2023-01-30T08:44:59.316Z,17.02
2023-01-30T08:47:30.286Z,19.23
2023-01-30T08:50:01.281Z,21.90
2023-01-30T08:52:32.297Z,19.98
2023-01-30T08:55:05.959Z,19.90
2023-01-30T08:57:36.857Z,17.58
2023-01-30T09:00:09.289Z,18.05
2023-01-30T09:02:40.920Z,20.63
2023-01-30T09:05:13.796Z,20.58
2023-01-30T09:07:44.681Z,20.38
2023-01-30T09:10:18.859Z,19.25
2023-01-30T09:12:50.058Z,16.08
2023-01-30T09:15:21.034Z,15.23
2023-01-30T09:17:52.032Z,15.45
2023-01-30T09:20:22.926Z,14.00
2023-01-30T09:22:53.866Z,15.77
2023-01-30T09:25:27.336Z,16.05
2023-01-30T09:27:58.537Z,18.20
2023-01-30T09:30:29.535Z,15.07
2023-01-30T09:33:00.509Z,16.25
2023-01-30T09:35:31.948Z,19.17
2023-01-30T09:38:04.570Z,18.60
2023-01-30T09:40:45.708Z,16.13
2023-01-30T09:43:29.924Z,17.10
2023-01-30T09:46:14.479Z,19.67
2023-01-30T09:48:54.146Z,19.63
2023-01-30T09:51:58.922Z,17.05
2023-01-30T09:54:34.047Z,21.77
2023-01-30T09:57:21.119Z,18.35
2023-01-30T10:00:00.384Z,15.65
2023-01-30T10:02:47.779Z,16.60
2023-01-30T10:05:18.891Z,17.27
2023-01-30T10:08:05.183Z,14.48
2023-01-30T10:11:00.750Z,18.33
2023-01-30T10:13:52.376Z,15.73
2023-01-30T10:16:28.638Z,16.27
2023-01-30T10:19:35.544Z,15.88
2023-01-30T10:22:19.306Z,15.30
2023-01-30T10:25:02.433Z,16.83
2023-01-30T10:27:35.738Z,18.67
2023-01-30T10:30:11.261Z,15.15
2023-01-30T10:32:45.483Z,13.85
2023-01-30T10:35:21.096Z,14.98
2023-01-30T10:37:59.600Z,15.73
2023-01-30T10:40:36.758Z,14.70
2023-01-30T10:43:16.126Z,16.67
2023-01-30T10:45:56.791Z,14.52
2023-01-30T10:48:55.512Z,15.80
2023-01-30T10:51:37.680Z,16.90
2023-01-30T10:54:19.285Z,16.88
2023-01-30T10:56:57.688Z,15.15
2023-01-30T10:59:38.811Z,12.90
2023-01-30T11:02:36.941Z,13.30
2023-01-30T11:05:17.621Z,13.23
2023-01-30T11:07:51.535Z,12.15
2023-01-30T11:10:25.475Z,18.35
2023-01-30T11:12:59.299Z,15.07
2023-01-30T11:15:43.072Z,16.77
2023-01-30T11:21:11.415Z,23.73
2023-01-30T11:23:45.369Z,38.05
2023-01-30T11:26:31.993Z,39.15
2023-01-30T11:29:26.519Z,18.85
2023-01-30T11:31:58.418Z,16.15
2023-01-30T11:34:32.019Z,16.20
2023-01-30T11:37:17.718Z,13.82
2023-01-30T11:39:54.379Z,16.35
2023-01-30T11:42:32.904Z,15.10
2023-01-30T11:45:16.734Z,13.88
2023-01-30T11:47:59.170Z,18.00
2023-01-30T11:50:43.153Z,13.70
2023-01-30T11:53:38.171Z,17.23
2023-01-30T11:56:13.167Z,13.88
2023-01-30T11:58:46.561Z,14.18
2023-01-30T12:01:19.191Z,14.05
2023-01-30T12:03:54.467Z,14.85
2023-01-30T12:06:33.695Z,13.55
2023-01-30T12:09:04.994Z,14.35
2023-01-30T12:11:45.540Z,15.18
2023-01-30T12:14:31.239Z,17.17
2023-01-30T12:17:09.003Z,19.25
2023-01-30T12:19:48.582Z,16.60
2023-01-30T12:22:34.524Z,20.77
2023-01-30T12:25:13.008Z,14.20
2023-01-30T12:30:36.210Z,26.70
2023-01-30T12:33:09.635Z,20.98
2023-01-30T12:35:56.290Z,15.80
2023-01-30T12:38:47.494Z,14.67
2023-01-30T12:41:40.954Z,17.55
2023-01-30T12:44:27.831Z,11.70
2023-01-30T12:47:16.946Z,15.02
2023-01-30T12:50:04.219Z,11.88
2023-01-30T12:52:52.177Z,17.98
2023-01-30T12:55:33.913Z,10.50
2023-01-30T12:58:11.606Z,11.73
2023-01-30T13:00:58.683Z,13.55
2023-01-30T13:03:38.802Z,13.43
2023-01-30T13:06:22.258Z,18.73
2023-01-30T13:09:09.920Z,12.00
2023-01-30T13:11:55.155Z,17.20
2023-01-30T13:14:36.363Z,13.13
2023-01-30T13:17:27.792Z,17.52
2023-01-30T13:20:05.516Z,10.52
2023-01-30T13:22:44.211Z,15.82
2023-01-30T13:25:25.240Z,13.77
2023-01-30T13:28:02.572Z,13.80
2023-01-30T13:30:36.588Z,12.95
2023-01-30T13:33:13.923Z,13.60
2023-01-30T13:35:49.586Z,14.38
2023-01-30T13:38:23.597Z,23.10
2023-01-30T13:40:58.077Z,17.60
2023-01-30T13:43:34.726Z,17.35
2023-01-30T13:46:10.348Z,18.35
2023-01-30T13:48:52.650Z,23.05
2023-01-30T13:51:40.586Z,24.30
2023-01-30T13:54:23.142Z,20.85
2023-01-30T13:57:00.301Z,22.45
2023-01-30T14:00:01.955Z,24.25
2023-01-30T14:03:18.127Z,23.48
2023-01-30T14:06:33.533Z,24.05
2023-01-30T14:09:09.166Z,18.63
2023-01-30T14:11:44.963Z,20.67
2023-01-30T14:14:31.182Z,20.65
2023-01-30T14:17:14.950Z,19.92
2023-01-30T14:20:01.150Z,23.67
2023-01-30T14:22:50.978Z,26.17
2023-01-30T14:25:54.289Z,19.75
2023-01-30T14:28:52.366Z,17.80
2023-01-30T14:34:47.553Z,15.23
2023-01-30T14:37:49.101Z,14.15
2023-01-30T14:41:13.022Z,16.90
2023-01-30T14:43:53.761Z,14.35
2023-01-30T14:46:54.817Z,16.38
2023-01-30T14:49:38.061Z,15.48
2023-01-30T14:52:08.991Z,16.00
2023-01-30T14:54:51.504Z,15.82
2023-01-30T14:57:32.927Z,13.20
2023-01-30T15:00:17.740Z,11.98
2023-01-30T15:02:55.714Z,12.68
2023-01-30T15:05:33.541Z,13.82
2023-01-30T15:08:11.137Z,11.73
2023-01-30T15:11:09.790Z,11.30
2023-01-30T15:14:05.237Z,10.18
2023-01-30T15:17:03.322Z,10.20
2023-01-30T15:20:06.118Z,10.35
2023-01-30T15:22:47.857Z,10.57
2023-01-30T15:25:44.459Z,12.73
2023-01-30T15:28:30.330Z,70.90
2023-01-30T15:31:11.718Z,30.05
2023-01-30T15:33:49.876Z,24.73
2023-01-30T15:36:28.263Z,33.42
2023-01-30T15:39:06.991Z,20.42
2023-01-30T15:41:43.313Z,17.48
2023-01-30T15:44:51.522Z,16.92
2023-01-30T15:47:34.506Z,14.43
2023-01-30T15:50:08.029Z,14.57
2023-01-30T15:52:45.403Z,11.93
2023-01-30T15:55:22.634Z,12.18
2023-01-30T15:57:57.347Z,15.50
2023-01-30T16:00:36.869Z,11.95
2023-01-30T16:03:09.380Z,10.82
2023-01-30T16:05:40.588Z,7.57
2023-01-30T16:08:22.920Z,8.45
2023-01-30T16:10:54.452Z,10.35
2023-01-30T16:13:26.468Z,44.72
2023-01-30T16:16:03.755Z,24.40
2023-01-30T16:18:39.740Z,9.88
2023-01-30T16:21:13.175Z,9.50
2023-01-30T16:23:46.301Z,5.70
2023-01-30T16:26:22.122Z,7.68
2023-01-30T16:28:54.554Z,7.38
2023-01-30T16:31:29.089Z,5.93
2023-01-30T16:34:00.092Z,7.20
2023-01-30T16:36:40.936Z,7.07
2023-01-30T16:39:29.711Z,4.80
2023-01-30T16:42:02.226Z,7.32
2023-01-30T16:44:35.701Z,15.20
2023-01-30T16:47:15.292Z,12.70
2023-01-30T16:49:49.601Z,10.30
2023-01-30T16:52:23.514Z,12.65
2023-01-30T16:54:56.965Z,23.50
2023-01-30T16:57:36.486Z,22.63
2023-01-30T17:00:12.061Z,21.90
2023-01-30T17:02:51.099Z,18.10
2023-01-30T17:05:25.213Z,18.98
2023-01-30T17:07:56.944Z,18.70
2023-01-30T17:10:57.484Z,13.95
2023-01-30T17:13:37.410Z,16.02
2023-01-30T17:16:28.372Z,17.75
2023-01-30T17:19:02.134Z,19.02
2023-01-30T17:21:34.936Z,13.52
2023-01-30T17:24:08.267Z,18.73
2023-01-30T17:26:41.813Z,28.48
2023-01-30T17:29:23.994Z,21.35
2023-01-30T17:32:04.986Z,15.88
2023-01-30T17:34:41.397Z,17.63
2023-01-30T17:37:18.450Z,16.15
2023-01-30T17:39:49.839Z,23.80
2023-01-30T17:42:22.619Z,19.15
2023-01-30T17:44:54.263Z,20.25
2023-01-30T17:47:25.093Z,22.75
2023-01-30T17:49:58.602Z,22.27
2023-01-30T17:52:29.477Z,19.85
2023-01-30T17:55:00.316Z,18.20
2023-01-30T17:57:31.315Z,28.75
2023-01-30T18:00:02.128Z,23.10
2023-01-30T18:02:40.140Z,18.50
2023-01-30T18:05:13.921Z,34.60
2023-01-30T18:07:45.665Z,28.65
2023-01-30T18:10:20.041Z,28.08
2023-01-30T18:12:51.031Z,28.70
2023-01-30T18:15:21.925Z,24.63
2023-01-30T18:17:55.259Z,19.85
2023-01-30T18:20:28.681Z,25.83
2023-01-30T18:22:59.542Z,18.05
2023-01-30T18:25:30.360Z,21.35
2023-01-30T18:28:03.044Z,24.83
2023-01-30T18:30:34.061Z,20.77
2023-01-30T18:33:05.469Z,22.00
2023-01-30T18:35:40.944Z,35.42
2023-01-30T18:38:11.953Z,25.05
2023-01-30T18:40:42.799Z,17.88
2023-01-30T18:43:13.667Z,23.73
2023-01-30T18:45:44.501Z,21.38
2023-01-30T18:48:15.294Z,25.95
2023-01-30T18:50:48.757Z,23.17
2023-01-30T18:53:19.524Z,41.25
2023-01-30T18:55:53.186Z,34.00
2023-01-30T18:58:24.018Z,33.78
2023-01-30T19:00:54.922Z,37.70
2023-01-30T19:03:25.732Z,64.75
2023-01-30T19:05:59.189Z,140.55
2023-01-30T19:08:30.091Z,374.02
2023-01-30T19:11:28.024Z,189.63
2023-01-30T19:13:57.083Z,75.75
2023-01-30T19:16:29.891Z,46.28
2023-01-30T19:19:01.414Z,25.05
2023-01-30T19:21:35.237Z,81.50
2023-01-30T19:24:06.869Z,691.65
2023-01-30T19:26:38.080Z,547.15
2023-01-30T19:29:09.436Z,634.08
2023-01-30T19:31:40.814Z,469.73
2023-01-30T19:34:14.665Z,150.10
2023-01-30T19:36:48.089Z,57.35
2023-01-30T19:39:18.961Z,33.65
2023-01-30T19:41:50.442Z,39.95
2023-01-30T19:44:21.591Z,35.83
2023-01-30T19:46:52.356Z,35.22
2023-01-30T19:49:23.297Z,24.42
2023-01-30T19:51:57.969Z,21.48
2023-01-30T19:54:28.935Z,24.25
2023-01-30T19:57:00.127Z,28.55
2023-01-30T19:59:31.136Z,28.38
2023-01-30T20:02:02.101Z,27.85
2023-01-30T20:04:33.059Z,24.33
2023-01-30T20:07:06.525Z,28.60
2023-01-30T20:09:37.334Z,28.33
2023-01-30T20:12:08.637Z,21.23
2023-01-30T20:14:39.701Z,24.13
2023-01-30T20:17:12.359Z,24.42
2023-01-30T20:19:43.654Z,17.27
2023-01-30T20:22:17.603Z,17.20
2023-01-30T20:24:48.724Z,20.05
2023-01-30T20:27:19.818Z,22.42
2023-01-30T20:29:50.636Z,14.75
2023-01-30T20:32:21.752Z,17.85
2023-01-30T20:34:52.907Z,16.38
2023-01-30T20:37:26.770Z,13.85
2023-01-30T20:39:57.618Z,23.77
2023-01-30T20:42:28.493Z,15.02
2023-01-30T20:44:59.359Z,17.88
2023-01-30T20:47:30.217Z,19.13
2023-01-30T20:50:01.077Z,20.52
2023-01-30T20:52:35.396Z,19.13
2023-01-30T20:55:06.266Z,20.70
2023-01-30T20:57:37.378Z,19.15
2023-01-30T21:00:10.543Z,20.02
2023-01-30T21:02:42.921Z,19.35
2023-01-30T21:05:16.840Z,20.63
2023-01-30T21:07:50.326Z,22.95
2023-01-30T21:10:21.317Z,21.80
2023-01-30T21:12:52.177Z,25.98
2023-01-30T21:15:22.933Z,19.13
2023-01-30T21:17:54.211Z,24.10
2023-01-30T21:20:25.143Z,27.42
2023-01-30T21:22:58.693Z,17.77
2023-01-30T21:25:29.759Z,20.00
2023-01-30T21:28:00.604Z,23.45
2023-01-30T21:30:31.664Z,23.67
2023-01-30T21:33:02.574Z,24.17
2023-01-30T21:35:33.439Z,20.83
2023-01-30T21:38:19.245Z,26.92
2023-01-30T21:41:05.895Z,27.63
2023-01-30T21:43:36.728Z,19.03
2023-01-30T21:46:08.355Z,16.40
2023-01-30T21:48:39.158Z,23.33
2023-01-30T21:51:15.155Z,22.73
2023-01-30T21:53:48.951Z,21.00
2023-01-30T21:56:19.984Z,18.33
2023-01-30T21:58:51.083Z,18.83
2023-01-30T22:01:22.170Z,21.05
2023-01-30T22:03:53.365Z,30.30
2023-01-30T22:06:24.791Z,22.27
2023-01-30T22:09:01.086Z,20.30
2023-01-30T22:11:32.793Z,20.77
2023-01-30T22:14:03.792Z,26.75
2023-01-30T22:16:36.308Z,27.92
2023-01-30T22:19:08.253Z,23.38
2023-01-30T22:21:41.037Z,29.75
2023-01-30T22:24:14.643Z,31.17
2023-01-30T22:26:45.602Z,28.48
2023-01-30T22:29:18.293Z,32.60
2023-01-30T22:31:49.620Z,26.80
2023-01-30T22:34:20.845Z,22.95
2023-01-30T22:36:51.926Z,23.05
2023-01-30T22:39:25.574Z,27.67
2023-01-30T22:41:56.468Z,26.17
2023-01-30T22:44:27.309Z,20.02
2023-01-30T22:46:58.658Z,25.73
2023-01-30T22:49:29.718Z,16.33
2023-01-30T22:52:01.925Z,19.58
2023-01-30T22:54:35.839Z,24.08
2023-01-30T22:57:06.698Z,18.42
2023-01-30T22:59:38.178Z,26.35
2023-01-30T23:02:10.508Z,19.77
2023-01-30T23:04:41.447Z,20.52
2023-01-30T23:07:14.504Z,18.15
2023-01-30T23:09:47.904Z,22.08
2023-01-30T23:12:30.980Z,24.23
2023-01-30T23:15:01.853Z,22.63
2023-01-30T23:17:45.003Z,23.73
2023-01-30T23:20:16.456Z,28.33
2023-01-30T23:22:47.286Z,21.30
2023-01-30T23:25:21.191Z,20.10
2023-01-30T23:27:52.153Z,21.60
2023-01-30T23:30:23.246Z,20.95
2023-01-30T23:32:54.073Z,22.90
2023-01-30T23:35:25.029Z,23.23
2023-01-30T23:38:08.100Z,22.50
2023-01-30T23:40:41.721Z,23.42
2023-01-30T23:43:13.459Z,30.33
2023-01-30T23:45:45.025Z,24.52
2023-01-30T23:48:16.004Z,29.38
2023-01-30T23:50:46.879Z,20.70
2023-01-30T23:53:17.617Z,23.65
2023-01-30T23:55:56.751Z,23.02
2023-01-30T23:58:27.560Z,20.80
